createdAt,value
2022-07-30T00:00:29.147Z,4.90
2022-07-30T00:03:04.836Z,5.50
2022-07-30T00:05:32.944Z,5.40
2022-07-30T00:08:01.211Z,5.00
2022-07-30T00:10:29.941Z,4.40
2022-07-30T00:12:58.386Z,3.90
2022-07-30T00:15:26.717Z,5.00
2022-07-30T00:17:57.432Z,5.00
2022-07-30T00:20:28.127Z,4.40
2022-07-30T00:22:57.013Z,5.00
2022-07-30T00:25:25.297Z,5.20
2022-07-30T00:27:53.531Z,4.60
2022-07-30T00:30:22.733Z,4.90
2022-07-30T00:32:51.468Z,4.70
2022-07-30T00:35:19.871Z,5.30
2022-07-30T00:37:48.116Z,4.30
2022-07-30T00:40:16.898Z,5.20
2022-07-30T00:42:47.838Z,5.30
2022-07-30T00:45:17.810Z,5.10
2022-07-30T00:47:46.429Z,4.80
2022-07-30T00:50:15.812Z,4.60
2022-07-30T00:52:45.348Z,5.60
2022-07-30T00:55:15.167Z,5.30
2022-07-30T00:57:43.997Z,5.60
2022-07-30T01:00:16.160Z,4.90
2022-07-30T01:02:44.472Z,5.50
2022-07-30T01:05:12.841Z,4.40
2022-07-30T01:07:42.267Z,5.10
2022-07-30T01:10:13.616Z,4.00
2022-07-30T01:12:44.007Z,6.90
2022-07-30T01:15:12.903Z,5.20
2022-07-30T01:17:41.470Z,5.00
2022-07-30T01:20:17.647Z,5.70
2022-07-30T01:23:07.655Z,6.20
2022-07-30T01:26:05.844Z,5.70
2022-07-30T01:28:38.344Z,5.40
2022-07-30T01:31:09.445Z,6.50
2022-07-30T01:33:42.563Z,7.10
2022-07-30T01:36:14.502Z,6.90
2022-07-30T01:38:47.124Z,6.50
2022-07-30T01:41:16.301Z,4.80
2022-07-30T01:43:47.063Z,4.70
2022-07-30T01:46:17.646Z,5.00
2022-07-30T01:48:49.466Z,5.10
2022-07-30T01:51:19.919Z,4.60
2022-07-30T01:53:53.500Z,5.50
2022-07-30T01:56:25.128Z,5.00
2022-07-30T02:01:29.149Z,4.70
2022-07-30T02:04:03.790Z,4.70
2022-07-30T02:06:41.335Z,5.00
2022-07-30T02:09:15.731Z,4.50
2022-07-30T02:12:05.911Z,5.30
2022-07-30T02:15:08.913Z,5.10
2022-07-30T02:20:17.129Z,4.90
2022-07-30T02:22:49.159Z,5.60
2022-07-30T02:25:21.597Z,5.90
2022-07-30T02:27:56.666Z,5.90
2022-07-30T02:30:30.469Z,6.00
2022-07-30T02:33:05.833Z,5.80
2022-07-30T02:35:35.966Z,5.00
2022-07-30T02:38:05.886Z,6.20
2022-07-30T02:40:34.226Z,6.90
2022-07-30T02:43:02.685Z,6.40
2022-07-30T02:45:31.069Z,7.50
2022-07-30T02:48:03.254Z,6.20
2022-07-30T02:50:32.909Z,6.10
2022-07-30T02:53:03.332Z,6.50
2022-07-30T02:55:35.725Z,7.60
2022-07-30T03:00:35.503Z,8.20
2022-07-30T03:03:07.456Z,7.60
2022-07-30T03:05:39.740Z,8.10
2022-07-30T03:08:09.921Z,9.90
2022-07-30T03:10:40.106Z,11.00
2022-07-30T03:13:10.845Z,8.00
2022-07-30T03:15:44.375Z,8.30
2022-07-30T03:18:14.894Z,7.40
2022-07-30T03:20:46.171Z,6.50
2022-07-30T03:23:19.896Z,6.80
2022-07-30T03:25:54.571Z,6.10
2022-07-30T03:28:24.412Z,7.80
2022-07-30T03:30:54.432Z,5.80
2022-07-30T03:33:24.306Z,5.80
2022-07-30T03:36:08.689Z,6.30
2022-07-30T03:38:39.523Z,5.50
2022-07-30T03:41:09.429Z,6.00
2022-07-30T03:43:40.217Z,9.50
2022-07-30T03:46:10.023Z,9.60
2022-07-30T03:48:41.708Z,10.80
2022-07-30T03:51:10.795Z,10.80
2022-07-30T03:53:42.352Z,9.40
2022-07-30T03:56:29.317Z,7.20
2022-07-30T03:59:05.156Z,7.70
2022-07-30T04:01:34.401Z,7.80
2022-07-30T04:04:16.616Z,8.10
2022-07-30T04:06:44.935Z,8.00
2022-07-30T04:09:16.203Z,6.30
2022-07-30T04:11:44.656Z,6.70
2022-07-30T04:14:15.769Z,6.80
2022-07-30T04:16:50.667Z,5.50
2022-07-30T04:19:30.642Z,7.10
2022-07-30T04:22:02.344Z,6.30
2022-07-30T04:24:33.775Z,7.10
2022-07-30T04:27:03.542Z,5.60
2022-07-30T04:29:32.697Z,5.60
2022-07-30T04:32:01.077Z,5.80
2022-07-30T04:34:57.949Z,5.50
2022-07-30T04:37:48.997Z,5.90
2022-07-30T04:40:17.114Z,8.60
2022-07-30T04:42:45.261Z,8.20
2022-07-30T04:45:14.286Z,6.50
2022-07-30T04:48:01.756Z,5.90
2022-07-30T04:50:39.043Z,7.00
2022-07-30T04:53:09.943Z,7.50
2022-07-30T04:55:42.831Z,8.80
2022-07-30T04:58:13.870Z,7.60
2022-07-30T05:00:44.339Z,6.50
2022-07-30T05:03:16.597Z,5.50
2022-07-30T05:05:56.911Z,6.90
2022-07-30T05:08:27.239Z,8.40
2022-07-30T05:10:56.174Z,8.70
2022-07-30T05:13:27.527Z,8.90
2022-07-30T05:16:03.409Z,9.90
2022-07-30T05:18:31.521Z,10.40
2022-07-30T05:20:59.579Z,7.80
2022-07-30T05:23:31.897Z,8.00
2022-07-30T05:26:12.319Z,7.60
2022-07-30T05:28:45.007Z,6.80
2022-07-30T05:31:17.454Z,7.60
2022-07-30T05:33:53.089Z,7.30
2022-07-30T05:36:21.763Z,7.20
2022-07-30T05:38:49.807Z,6.30
2022-07-30T05:41:36.331Z,6.90
2022-07-30T05:44:39.838Z,6.60
2022-07-30T05:47:08.087Z,6.90
2022-07-30T05:49:36.243Z,6.50
2022-07-30T05:52:09.714Z,5.90
2022-07-30T05:54:37.847Z,7.80
2022-07-30T05:57:24.692Z,6.50
2022-07-30T05:59:53.146Z,7.00
2022-07-30T06:02:44.671Z,6.80
2022-07-30T06:05:48.372Z,7.90
2022-07-30T06:08:17.330Z,8.30
2022-07-30T06:10:47.597Z,5.80
2022-07-30T06:13:15.579Z,6.10
2022-07-30T06:15:43.957Z,6.50
2022-07-30T06:18:12.259Z,6.30
2022-07-30T06:20:59.772Z,7.50
2022-07-30T06:23:48.332Z,6.70
2022-07-30T06:26:52.053Z,7.60
2022-07-30T06:29:20.846Z,7.30
2022-07-30T06:31:49.302Z,8.30
2022-07-30T06:34:17.608Z,8.70
2022-07-30T06:36:45.806Z,7.80
2022-07-30T06:39:56.304Z,6.90
2022-07-30T06:42:25.170Z,6.90
2022-07-30T06:45:15.629Z,7.00
2022-07-30T06:48:13.089Z,7.20
2022-07-30T06:50:42.351Z,6.70
2022-07-30T06:53:10.783Z,7.50
2022-07-30T06:56:04.891Z,8.30
2022-07-30T06:58:43.646Z,7.40
2022-07-30T07:01:34.539Z,7.70
2022-07-30T07:04:03.990Z,8.30
2022-07-30T07:06:32.376Z,7.60
2022-07-30T07:09:01.195Z,7.50
2022-07-30T07:11:35.695Z,6.80
2022-07-30T07:14:08.228Z,7.90
2022-07-30T07:16:36.516Z,9.10
2022-07-30T07:19:59.766Z,8.30
2022-07-30T07:22:15.952Z,8.70
2022-07-30T07:24:44.793Z,8.60
2022-07-30T07:27:16.986Z,9.00
2022-07-30T07:30:01.010Z,10.40
2022-07-30T07:32:35.340Z,10.40
2022-07-30T07:35:04.213Z,13.50
2022-07-30T07:37:33.445Z,11.80
2022-07-30T07:40:01.504Z,9.40
2022-07-30T07:42:31.782Z,10.10
2022-07-30T07:44:59.768Z,10.60
2022-07-30T07:47:31.170Z,12.20
2022-07-30T07:50:08.281Z,11.50
2022-07-30T07:52:36.864Z,9.90
2022-07-30T07:55:07.873Z,13.10
2022-07-30T07:57:45.799Z,16.50
2022-07-30T08:00:18.209Z,14.30
2022-07-30T08:02:49.566Z,17.60
2022-07-30T08:05:17.937Z,14.70
2022-07-30T08:07:53.475Z,19.50
2022-07-30T08:10:40.331Z,18.80
2022-07-30T08:13:51.433Z,13.80
2022-07-30T08:16:39.747Z,12.60
2022-07-30T08:19:37.075Z,10.90
2022-07-30T08:22:13.062Z,10.40
2022-07-30T08:24:41.222Z,8.40
2022-07-30T08:27:10.915Z,10.60
2022-07-30T08:29:39.103Z,8.40
2022-07-30T08:32:07.332Z,7.90
2022-07-30T08:34:37.317Z,10.20
2022-07-30T08:37:06.705Z,8.50
2022-07-30T08:39:35.232Z,8.00
2022-07-30T08:42:05.122Z,8.60
2022-07-30T08:44:35.569Z,7.00
2022-07-30T08:47:07.754Z,8.00
2022-07-30T08:50:01.533Z,6.50
2022-07-30T08:52:36.210Z,7.40
2022-07-30T08:55:08.199Z,8.90
2022-07-30T08:57:37.480Z,6.30
2022-07-30T09:00:07.291Z,6.10
2022-07-30T09:02:35.721Z,7.90
2022-07-30T09:05:07.623Z,6.50
2022-07-30T09:07:36.762Z,6.60
2022-07-30T09:10:06.726Z,7.70
2022-07-30T09:12:38.095Z,7.30
2022-07-30T09:15:15.911Z,6.50
2022-07-30T09:17:50.045Z,7.70
2022-07-30T09:20:20.183Z,7.30
2022-07-30T09:22:50.939Z,6.70
2022-07-30T09:25:41.131Z,7.50
2022-07-30T09:28:30.373Z,6.80
2022-07-30T09:31:18.376Z,6.70
2022-07-30T09:34:27.865Z,6.30
2022-07-30T09:37:18.008Z,6.20
2022-07-30T09:40:15.315Z,6.30
2022-07-30T09:43:12.458Z,5.60
2022-07-30T09:45:57.947Z,5.00
2022-07-30T09:48:28.354Z,4.70
2022-07-30T09:50:57.322Z,4.50
2022-07-30T09:53:26.530Z,4.80
2022-07-30T09:55:54.830Z,5.20
2022-07-30T09:58:26.995Z,4.80
2022-07-30T10:00:59.632Z,4.80
2022-07-30T10:03:48.449Z,4.40
2022-07-30T10:06:38.023Z,5.00
2022-07-30T10:09:37.260Z,5.50
2022-07-30T10:12:11.286Z,5.00
2022-07-30T10:14:46.495Z,4.90
2022-07-30T10:17:17.582Z,5.20
2022-07-30T10:20:08.030Z,5.40
2022-07-30T10:23:08.064Z,5.30
2022-07-30T10:26:13.684Z,4.20
2022-07-30T10:29:09.457Z,4.50
2022-07-30T10:31:48.443Z,4.70
2022-07-30T10:34:23.523Z,4.30
2022-07-30T10:37:01.831Z,4.70
2022-07-30T10:39:39.969Z,4.00
2022-07-30T10:42:54.971Z,4.40
2022-07-30T10:45:51.485Z,4.50
2022-07-30T10:48:22.239Z,4.20
2022-07-30T10:50:56.967Z,6.00
2022-07-30T10:53:42.134Z,4.10
2022-07-30T10:56:25.633Z,4.60
2022-07-30T10:59:09.865Z,4.30
2022-07-30T11:01:48.789Z,4.70
2022-07-30T11:07:24.742Z,4.30
2022-07-30T11:10:08.840Z,3.80
2022-07-30T11:12:52.717Z,3.90
2022-07-30T11:15:22.464Z,3.80
2022-07-30T11:18:12.795Z,4.60
2022-07-30T11:20:48.780Z,4.50
2022-07-30T11:23:20.330Z,4.00
2022-07-30T11:25:51.688Z,4.40
2022-07-30T11:28:38.289Z,4.80
2022-07-30T11:31:54.786Z,4.20
2022-07-30T11:34:24.147Z,4.00
2022-07-30T11:37:32.232Z,6.00
2022-07-30T11:40:01.208Z,4.40
2022-07-30T11:42:34.593Z,4.40
2022-07-30T11:45:23.430Z,4.10
2022-07-30T11:47:57.006Z,4.60
2022-07-30T11:50:27.687Z,4.40
2022-07-30T11:52:59.017Z,4.60
2022-07-30T11:55:39.922Z,4.50
2022-07-30T11:58:11.294Z,4.20
2022-07-30T12:00:48.214Z,4.90
2022-07-30T12:03:19.252Z,4.30
2022-07-30T12:05:53.107Z,4.00
2022-07-30T12:08:35.246Z,4.10
2022-07-30T12:11:04.569Z,4.10
2022-07-30T12:13:44.441Z,4.00
2022-07-30T12:18:48.400Z,4.10
2022-07-30T12:21:16.732Z,4.30
2022-07-30T12:23:59.905Z,4.20
2022-07-30T12:26:34.297Z,4.70
2022-07-30T12:29:10.201Z,4.70
2022-07-30T12:31:40.261Z,4.80
2022-07-30T12:34:25.013Z,4.70
2022-07-30T12:36:54.214Z,5.20
2022-07-30T12:39:24.925Z,4.60
2022-07-30T12:41:58.027Z,4.90
2022-07-30T12:44:35.226Z,5.30
2022-07-30T12:47:05.935Z,5.20
2022-07-30T12:49:36.805Z,4.60
2022-07-30T12:52:11.855Z,5.40
2022-07-30T12:54:41.628Z,7.30
2022-07-30T12:57:09.625Z,4.50
2022-07-30T12:59:38.768Z,4.70
2022-07-30T13:02:06.891Z,4.60
2022-07-30T13:04:39.976Z,4.10
2022-07-30T13:07:22.928Z,5.10
2022-07-30T13:10:10.449Z,5.20
2022-07-30T13:12:38.723Z,4.90
2022-07-30T13:15:07.439Z,4.70
2022-07-30T13:17:37.874Z,4.70
2022-07-30T13:20:06.856Z,4.90
2022-07-30T13:22:34.826Z,4.90
2022-07-30T13:25:03.316Z,4.60
2022-07-30T13:27:31.304Z,4.70
2022-07-30T13:29:59.234Z,7.20
2022-07-30T13:32:27.272Z,4.70
2022-07-30T13:34:59.801Z,5.30
2022-07-30T13:37:37.484Z,4.40
2022-07-30T13:40:07.064Z,4.50
2022-07-30T13:42:35.041Z,4.10
2022-07-30T13:45:03.291Z,5.10
2022-07-30T13:47:31.821Z,5.00
2022-07-30T13:49:59.785Z,4.20
2022-07-30T13:52:27.764Z,4.60
2022-07-30T13:54:55.744Z,5.00
2022-07-30T13:57:23.706Z,4.90
2022-07-30T13:59:52.795Z,4.50
2022-07-30T14:02:20.810Z,4.40
2022-07-30T14:04:48.857Z,4.50
2022-07-30T14:07:17.851Z,4.60
2022-07-30T14:09:47.694Z,4.90
2022-07-30T14:12:17.484Z,4.80
2022-07-30T14:14:45.417Z,4.80
2022-07-30T14:17:13.353Z,4.40
2022-07-30T14:19:41.373Z,4.30
2022-07-30T14:22:09.379Z,4.40
2022-07-30T14:24:37.334Z,4.10
2022-07-30T14:27:05.936Z,4.20
2022-07-30T14:29:34.160Z,4.10
2022-07-30T14:32:02.365Z,4.20
2022-07-30T14:34:30.400Z,4.00
2022-07-30T14:36:59.203Z,3.70
2022-07-30T14:39:27.470Z,3.80
2022-07-30T14:41:56.594Z,3.90
2022-07-30T14:44:24.791Z,4.40
2022-07-30T14:46:53.233Z,4.30
2022-07-30T14:49:22.711Z,4.00
2022-07-30T14:51:52.219Z,3.90
2022-07-30T14:54:20.416Z,4.30
2022-07-30T14:56:49.206Z,4.00
2022-07-30T14:59:17.179Z,4.40
2022-07-30T15:01:47.457Z,3.80
2022-07-30T15:04:15.935Z,4.20
2022-07-30T15:06:43.930Z,4.00
2022-07-30T15:09:12.251Z,4.20
2022-07-30T15:12:07.902Z,3.60
2022-07-30T15:14:28.520Z,3.20
2022-07-30T15:17:03.475Z,2.90
2022-07-30T15:19:33.082Z,2.90
2022-07-30T15:22:02.979Z,2.80
2022-07-30T15:24:32.095Z,2.90
2022-07-30T15:27:00.195Z,2.80
2022-07-30T15:29:30.277Z,3.20
2022-07-30T15:32:00.614Z,2.90
2022-07-30T15:34:34.256Z,3.00
2022-07-30T15:37:04.092Z,3.30
2022-07-30T15:39:34.498Z,3.10
2022-07-30T15:42:03.507Z,3.20
2022-07-30T15:44:31.918Z,2.90
2022-07-30T15:47:00.362Z,2.90
2022-07-30T15:49:29.609Z,2.80
2022-07-30T15:51:59.787Z,3.00
2022-07-30T15:54:28.160Z,2.60
2022-07-30T15:57:00.780Z,3.00
2022-07-30T15:59:31.047Z,3.40
2022-07-30T16:01:59.090Z,2.60
2022-07-30T16:04:31.755Z,2.90
2022-07-30T16:07:01.115Z,3.10
2022-07-30T16:09:29.246Z,3.40
2022-07-30T16:11:58.161Z,3.10
2022-07-30T16:14:27.307Z,2.90
2022-07-30T16:16:56.514Z,3.70
2022-07-30T16:19:24.582Z,3.70
2022-07-30T16:21:52.741Z,3.00
2022-07-30T16:24:21.890Z,4.10
2022-07-30T16:26:50.778Z,3.50
2022-07-30T16:29:18.819Z,3.30
2022-07-30T16:31:47.443Z,3.30
2022-07-30T16:34:16.964Z,3.40
2022-07-30T16:36:51.378Z,3.60
2022-07-30T16:39:19.338Z,3.20
2022-07-30T16:41:47.454Z,3.60
2022-07-30T16:44:16.029Z,3.90
2022-07-30T16:46:43.991Z,3.90
2022-07-30T16:49:12.021Z,4.30
2022-07-30T16:51:41.083Z,4.00
2022-07-30T16:54:09.207Z,4.40
2022-07-30T16:56:37.301Z,5.00
2022-07-30T16:59:05.333Z,4.40
2022-07-30T17:01:34.206Z,3.70
2022-07-30T17:04:02.250Z,4.00
2022-07-30T17:06:30.371Z,4.30
2022-07-30T17:08:58.310Z,3.70
2022-07-30T17:11:47.092Z,3.80
2022-07-30T17:14:15.122Z,4.20
2022-07-30T17:16:43.199Z,4.40
2022-07-30T17:19:11.334Z,3.50
2022-07-30T17:21:39.319Z,4.10
2022-07-30T17:24:12.039Z,3.90
2022-07-30T17:26:43.423Z,3.60
2022-07-30T17:29:15.037Z,4.00
2022-07-30T17:31:44.685Z,4.30
2022-07-30T17:34:15.975Z,3.40
2022-07-30T17:36:52.037Z,5.50
2022-07-30T17:40:27.224Z,5.10
2022-07-30T17:42:12.256Z,3.60
2022-07-30T17:44:42.520Z,3.00
2022-07-30T17:47:15.223Z,3.60
2022-07-30T17:49:44.675Z,3.70
2022-07-30T17:52:12.880Z,3.60
2022-07-30T17:54:41.316Z,3.20
2022-07-30T17:57:10.068Z,3.80
2022-07-30T17:59:38.788Z,3.20
2022-07-30T18:02:07.389Z,3.90
2022-07-30T18:04:35.972Z,3.90
2022-07-30T18:07:04.273Z,4.00
2022-07-30T18:09:36.158Z,4.40
2022-07-30T18:12:08.761Z,4.10
2022-07-30T18:14:37.546Z,3.80
2022-07-30T18:17:05.884Z,3.50
2022-07-30T18:19:33.833Z,4.30
2022-07-30T18:22:02.228Z,3.10
2022-07-30T18:24:31.226Z,3.50
2022-07-30T18:26:59.244Z,4.00
2022-07-30T18:29:27.352Z,4.10
2022-07-30T18:31:55.379Z,3.50
2022-07-30T18:34:23.386Z,4.00
2022-07-30T18:36:53.129Z,3.70
2022-07-30T18:39:21.371Z,3.90
2022-07-30T18:41:49.537Z,3.80
2022-07-30T18:44:17.699Z,3.30
2022-07-30T18:46:45.726Z,3.70
2022-07-30T18:49:35.726Z,3.10
2022-07-30T18:52:03.592Z,5.00
2022-07-30T18:54:31.753Z,3.60
2022-07-30T18:56:59.796Z,4.40
2022-07-30T18:59:27.976Z,4.00
2022-07-30T19:01:56.378Z,4.80
2022-07-30T19:04:24.564Z,4.40
2022-07-30T19:06:52.735Z,4.70
2022-07-30T19:09:20.708Z,3.80
2022-07-30T19:11:48.845Z,5.20
2022-07-30T19:14:17.343Z,4.60
2022-07-30T19:16:46.314Z,5.40
2022-07-30T19:19:15.443Z,4.70
2022-07-30T19:21:44.020Z,5.30
2022-07-30T19:24:12.572Z,4.80
2022-07-30T19:26:40.561Z,4.70
2022-07-30T19:29:08.716Z,4.00
2022-07-30T19:31:36.712Z,4.20
2022-07-30T19:34:05.271Z,3.40
2022-07-30T19:36:33.669Z,3.60
2022-07-30T19:39:07.144Z,4.50
2022-07-30T19:41:42.308Z,4.70
2022-07-30T19:44:11.502Z,3.80
2022-07-30T19:46:41.244Z,4.90
2022-07-30T19:49:10.749Z,4.40
2022-07-30T19:52:10.605Z,4.20
2022-07-30T19:54:27.020Z,4.20
2022-07-30T19:56:54.980Z,4.30
2022-07-30T19:59:45.262Z,5.00
2022-07-30T20:02:13.668Z,5.50
2022-07-30T20:04:43.804Z,5.70
2022-07-30T20:07:12.016Z,5.40
2022-07-30T20:09:42.952Z,4.70
2022-07-30T20:14:43.631Z,5.70
2022-07-30T20:17:11.994Z,4.40
2022-07-30T20:19:48.098Z,4.70
2022-07-30T20:22:17.105Z,7.90
2022-07-30T20:24:48.769Z,7.30
2022-07-30T20:27:37.216Z,8.60
2022-07-30T20:30:09.154Z,4.90
2022-07-30T20:32:42.311Z,6.10
2022-07-30T20:35:14.831Z,5.70
2022-07-30T20:37:54.675Z,7.70
2022-07-30T20:40:26.791Z,5.80
2022-07-30T20:42:55.580Z,6.20
2022-07-30T20:45:25.294Z,5.50
2022-07-30T20:48:08.520Z,4.10
2022-07-30T20:50:46.734Z,4.50
2022-07-30T20:53:17.440Z,4.30
2022-07-30T20:55:45.516Z,5.10
2022-07-30T20:58:16.648Z,4.40
2022-07-30T21:00:49.605Z,4.90
2022-07-30T21:03:21.263Z,5.30
2022-07-30T21:05:52.428Z,4.70
2022-07-30T21:08:25.130Z,4.50
2022-07-30T21:10:55.182Z,5.50
2022-07-30T21:13:25.026Z,3.90
2022-07-30T21:16:02.340Z,4.80
2022-07-30T21:18:32.635Z,5.00
2022-07-30T21:21:04.842Z,4.50
2022-07-30T21:23:34.100Z,4.60
2022-07-30T21:26:05.816Z,5.00
2022-07-30T21:28:36.074Z,5.40
2022-07-30T21:31:06.952Z,4.60
2022-07-30T21:33:37.210Z,4.20
2022-07-30T21:36:10.861Z,4.90
2022-07-30T21:38:42.023Z,5.50
2022-07-30T21:41:15.296Z,4.30
2022-07-30T21:43:44.660Z,3.90
2022-07-30T21:46:14.380Z,3.70
2022-07-30T21:48:45.921Z,3.70
2022-07-30T21:51:15.781Z,3.70
2022-07-30T21:53:45.202Z,3.70
2022-07-30T21:56:16.342Z,4.60
2022-07-30T21:58:45.173Z,4.60
2022-07-30T22:01:16.705Z,4.50
2022-07-30T22:04:04.695Z,4.30
2022-07-30T22:06:41.656Z,3.90
2022-07-30T22:09:19.033Z,3.90
2022-07-30T22:12:06.222Z,3.60
2022-07-30T22:14:35.061Z,3.80
2022-07-30T22:17:04.398Z,4.60
2022-07-30T22:19:32.948Z,4.10
2022-07-30T22:22:01.956Z,3.80
2022-07-30T22:27:14.478Z,4.50
2022-07-30T22:29:43.651Z,3.70
2022-07-30T22:32:12.490Z,4.50
2022-07-30T22:34:41.113Z,4.10
2022-07-30T22:37:12.921Z,4.20
2022-07-30T22:39:50.907Z,4.50
2022-07-30T22:42:24.290Z,4.20
2022-07-30T22:44:54.577Z,3.90
2022-07-30T22:47:50.837Z,4.20
2022-07-30T22:50:12.327Z,5.00
2022-07-30T22:52:44.302Z,4.50
2022-07-30T22:55:25.187Z,4.80
2022-07-30T22:57:53.420Z,5.10
2022-07-30T23:00:28.193Z,4.80
2022-07-30T23:02:57.689Z,3.80
2022-07-30T23:05:26.241Z,4.80
2022-07-30T23:07:54.636Z,4.60
2022-07-30T23:10:24.871Z,3.70
2022-07-30T23:12:54.061Z,4.40
2022-07-30T23:15:22.536Z,5.90
2022-07-30T23:17:53.336Z,5.40
2022-07-30T23:20:22.362Z,5.00
2022-07-30T23:22:51.168Z,5.70
2022-07-30T23:25:19.294Z,4.70
2022-07-30T23:27:47.539Z,5.20
2022-07-30T23:30:15.858Z,6.50
2022-07-30T23:32:44.005Z,5.10
2022-07-30T23:35:12.328Z,6.60
2022-07-30T23:37:48.439Z,5.90
2022-07-30T23:40:18.828Z,5.10
2022-07-30T23:42:50.921Z,5.20
2022-07-30T23:45:19.514Z,5.40
2022-07-30T23:47:52.068Z,5.20
2022-07-30T23:50:33.398Z,4.70
2022-07-30T23:53:03.071Z,5.20
2022-07-30T23:55:32.385Z,5.10
2022-07-30T23:58:00.602Z,4.90
